createdAt,value
2022-09-03T00:00:29.270Z,48.35
2022-09-03T00:03:27.402Z,48.45
2022-09-03T00:06:35.086Z,48.54
2022-09-03T00:09:24.965Z,48.33
2022-09-03T00:12:09.235Z,48.44
2022-09-03T00:14:56.398Z,48.80
2022-09-03T00:17:33.840Z,48.76
2022-09-03T00:20:29.445Z,48.95
2022-09-03T00:23:06.356Z,48.79
2022-09-03T00:25:48.287Z,48.94
2022-09-03T00:28:37.269Z,48.72
2022-09-03T00:31:15.341Z,48.79
2022-09-03T00:33:50.887Z,49.04
2022-09-03T00:36:32.287Z,49.04
2022-09-03T00:39:07.787Z,48.93
2022-09-03T00:42:05.693Z,48.96
2022-09-03T00:45:05.454Z,48.83
2022-09-03T00:47:55.942Z,48.78
2022-09-03T00:51:19.380Z,48.94
2022-09-03T00:54:00.875Z,49.05
2022-09-03T00:57:05.646Z,49.22
2022-09-03T00:59:47.420Z,49.07
2022-09-03T01:02:45.897Z,49.14
2022-09-03T01:05:29.639Z,49.08
2022-09-03T01:08:43.922Z,49.05
2022-09-03T01:11:37.928Z,49.30
2022-09-03T01:14:27.464Z,49.42
2022-09-03T01:17:22.941Z,49.73
2022-09-03T01:20:22.732Z,49.98
2022-09-03T01:23:15.345Z,50.29
2022-09-03T01:26:15.397Z,50.63
2022-09-03T01:29:18.048Z,51.04
2022-09-03T01:32:10.841Z,51.06
2022-09-03T01:35:32.938Z,51.25
2022-09-03T01:38:18.990Z,51.49
2022-09-03T01:41:27.584Z,51.48
2022-09-03T01:44:21.169Z,51.74
2022-09-03T01:47:06.599Z,52.04
2022-09-03T01:49:45.222Z,52.31
2022-09-03T01:52:24.798Z,52.29
2022-09-03T01:55:19.019Z,52.29
2022-09-03T01:57:57.874Z,52.49
2022-09-03T02:00:31.174Z,52.69
2022-09-03T02:03:08.187Z,52.88
2022-09-03T02:05:42.773Z,52.71
2022-09-03T02:08:16.448Z,52.77
2022-09-03T02:10:59.491Z,52.79
2022-09-03T02:13:52.182Z,52.71
2022-09-03T02:16:29.136Z,52.95
2022-09-03T02:19:04.920Z,52.97
2022-09-03T02:21:43.849Z,52.92
2022-09-03T02:24:16.919Z,53.07
2022-09-03T02:26:50.946Z,53.24
2022-09-03T02:29:26.080Z,53.29
2022-09-03T02:32:00.617Z,53.43
2022-09-03T02:34:33.872Z,53.44
2022-09-03T02:37:17.601Z,53.38
2022-09-03T02:39:52.446Z,53.48
2022-09-03T02:42:25.433Z,53.50
2022-09-03T02:45:03.035Z,53.51
2022-09-03T02:47:37.171Z,53.48
2022-09-03T02:50:10.875Z,53.47
2022-09-03T02:52:44.613Z,53.43
2022-09-03T02:55:17.663Z,53.25
2022-09-03T02:57:50.588Z,53.25
2022-09-03T03:00:23.679Z,53.21
2022-09-03T03:02:58.106Z,53.42
2022-09-03T03:05:38.556Z,53.55
2022-09-03T03:08:14.286Z,53.60
2022-09-03T03:10:48.083Z,53.90
2022-09-03T03:13:23.040Z,53.96
2022-09-03T03:16:02.789Z,53.86
2022-09-03T03:18:35.954Z,54.03
2022-09-03T03:21:13.811Z,54.38
2022-09-03T03:23:47.105Z,54.57
2022-09-03T03:26:22.278Z,54.72
2022-09-03T03:29:00.878Z,54.79
2022-09-03T03:31:34.159Z,55.08
2022-09-03T03:34:08.578Z,55.49
2022-09-03T03:36:42.919Z,55.99
2022-09-03T03:39:17.336Z,56.37
2022-09-03T03:41:50.990Z,56.65
2022-09-03T03:44:24.366Z,56.81
2022-09-03T03:46:57.172Z,57.08
2022-09-03T03:49:30.085Z,57.05
2022-09-03T03:52:05.266Z,57.17
2022-09-03T03:54:40.153Z,57.39
2022-09-03T03:57:13.656Z,57.34
2022-09-03T03:59:48.005Z,57.29
2022-09-03T04:02:21.771Z,57.25
2022-09-03T04:04:55.315Z,57.19
2022-09-03T04:07:28.474Z,57.11
2022-09-03T04:10:02.279Z,57.04
2022-09-03T04:12:35.548Z,56.83
2022-09-03T04:15:09.287Z,56.79
2022-09-03T04:17:44.397Z,56.71
2022-09-03T04:20:17.843Z,56.51
2022-09-03T04:22:52.049Z,56.56
2022-09-03T04:25:25.097Z,56.40
2022-09-03T04:27:58.214Z,56.52
2022-09-03T04:30:31.340Z,56.51
2022-09-03T04:33:05.039Z,56.55
2022-09-03T04:35:38.636Z,56.29
2022-09-03T04:38:11.654Z,56.28
2022-09-03T04:40:44.566Z,56.41
2022-09-03T04:43:17.963Z,55.73
2022-09-03T04:45:51.383Z,55.34
2022-09-03T04:48:24.543Z,55.47
2022-09-03T04:51:06.425Z,55.44
2022-09-03T04:53:48.283Z,55.80
2022-09-03T04:56:24.138Z,55.68
2022-09-03T04:58:59.689Z,55.61
2022-09-03T05:01:35.780Z,56.01
2022-09-03T05:04:09.609Z,56.07
2022-09-03T05:06:43.755Z,56.09
2022-09-03T05:09:16.988Z,56.24
2022-09-03T05:11:50.857Z,56.13
2022-09-03T05:14:23.742Z,55.88
2022-09-03T05:16:57.744Z,56.16
2022-09-03T05:19:31.799Z,56.16
2022-09-03T05:22:04.977Z,56.18
2022-09-03T05:24:38.367Z,55.79
2022-09-03T05:27:12.429Z,55.21
2022-09-03T05:29:49.076Z,54.89
2022-09-03T05:32:23.039Z,54.30
2022-09-03T05:34:56.479Z,54.45
2022-09-03T05:37:30.842Z,54.13
2022-09-03T05:40:04.258Z,54.17
2022-09-03T05:42:38.384Z,53.78
2022-09-03T05:45:12.940Z,53.72
2022-09-03T05:47:46.301Z,53.09
2022-09-03T05:50:19.935Z,52.49
2022-09-03T05:52:53.516Z,52.00
2022-09-03T05:55:29.224Z,52.34
2022-09-03T05:58:03.439Z,52.81
2022-09-03T06:00:37.488Z,53.31
2022-09-03T06:03:11.142Z,53.11
2022-09-03T06:05:56.669Z,52.29
2022-09-03T06:08:29.814Z,52.36
2022-09-03T06:11:04.862Z,52.57
2022-09-03T06:13:38.571Z,52.63
2022-09-03T06:16:11.777Z,51.46
2022-09-03T06:18:46.778Z,51.07
2022-09-03T06:21:19.727Z,50.48
2022-09-03T06:23:56.135Z,49.81
2022-09-03T06:26:33.442Z,49.03
2022-09-03T06:29:11.477Z,48.12
2022-09-03T06:31:44.410Z,46.74
2022-09-03T06:34:18.955Z,45.41
2022-09-03T06:36:51.317Z,45.12
2022-09-03T06:39:27.322Z,44.31
2022-09-03T06:42:00.674Z,43.94
2022-09-03T06:44:35.293Z,43.54
2022-09-03T06:47:08.104Z,43.13
2022-09-03T06:49:41.878Z,42.70
2022-09-03T06:52:16.001Z,42.75
2022-09-03T06:54:49.275Z,42.51
2022-09-03T06:57:22.282Z,42.03
2022-09-03T06:59:55.678Z,41.55
2022-09-03T07:02:29.407Z,41.51
2022-09-03T07:05:03.032Z,40.96
2022-09-03T07:07:37.691Z,41.02
2022-09-03T07:10:31.865Z,41.37
2022-09-03T07:13:08.089Z,41.47
2022-09-03T07:15:42.112Z,41.80
2022-09-03T07:18:16.197Z,43.23
2022-09-03T07:20:49.430Z,44.22
2022-09-03T07:23:22.952Z,43.60
2022-09-03T07:26:01.005Z,43.37
2022-09-03T07:28:37.138Z,43.02
2022-09-03T07:31:13.058Z,42.68
2022-09-03T07:33:46.233Z,42.52
2022-09-03T07:36:19.854Z,41.51
2022-09-03T07:38:54.368Z,41.59
2022-09-03T07:41:49.566Z,42.05
2022-09-03T07:44:24.180Z,40.72
2022-09-03T07:46:57.621Z,41.92
2022-09-03T07:49:30.681Z,41.18
2022-09-03T07:52:04.105Z,41.31
2022-09-03T07:54:38.192Z,40.93
2022-09-03T07:57:11.675Z,41.01
2022-09-03T07:59:45.215Z,40.93
2022-09-03T08:02:18.277Z,40.66
2022-09-03T08:04:51.489Z,40.38
2022-09-03T08:07:24.551Z,40.51
2022-09-03T08:09:59.718Z,39.64
2022-09-03T08:12:34.842Z,39.72
2022-09-03T08:15:10.265Z,40.57
2022-09-03T08:17:46.238Z,41.06
2022-09-03T08:20:21.148Z,41.64
2022-09-03T08:22:57.039Z,41.30
2022-09-03T08:25:30.524Z,41.44
2022-09-03T08:28:03.819Z,40.96
2022-09-03T08:30:37.820Z,40.74
2022-09-03T08:33:11.137Z,40.87
2022-09-03T08:35:44.425Z,40.48
2022-09-03T08:38:18.936Z,40.95
2022-09-03T08:40:52.756Z,40.16
2022-09-03T08:43:27.444Z,40.35
2022-09-03T08:46:00.744Z,40.21
2022-09-03T08:48:33.886Z,39.03
2022-09-03T08:51:07.801Z,39.13
2022-09-03T08:53:54.910Z,38.31
2022-09-03T08:56:32.582Z,37.56
2022-09-03T08:59:06.201Z,37.37
2022-09-03T09:01:43.905Z,36.75
2022-09-03T09:04:35.454Z,36.12
2022-09-03T09:07:29.788Z,35.19
2022-09-03T09:10:31.891Z,34.92
2022-09-03T09:13:12.709Z,34.89
2022-09-03T09:16:09.618Z,34.78
2022-09-03T09:19:15.863Z,34.34
2022-09-03T09:21:53.555Z,34.20
2022-09-03T09:24:29.894Z,33.37
2022-09-03T09:27:06.203Z,34.53
2022-09-03T09:29:41.004Z,34.53
2022-09-03T09:32:14.140Z,33.96
2022-09-03T09:34:52.291Z,33.51
2022-09-03T09:37:23.687Z,33.20
2022-09-03T09:40:00.906Z,33.49
2022-09-03T09:42:34.762Z,34.26
2022-09-03T09:45:15.030Z,33.68
2022-09-03T09:47:49.848Z,34.45
2022-09-03T09:50:43.725Z,34.34
2022-09-03T09:56:04.516Z,34.59
2022-09-03T09:58:39.135Z,34.82
2022-09-03T10:01:23.342Z,35.11
2022-09-03T10:04:03.742Z,35.04
2022-09-03T10:06:59.004Z,35.73
2022-09-03T10:09:33.453Z,36.02
2022-09-03T10:12:19.100Z,35.31
2022-09-03T10:15:39.161Z,35.19
2022-09-03T10:18:27.033Z,35.29
2022-09-03T10:21:20.653Z,34.69
2022-09-03T10:24:07.184Z,35.81
2022-09-03T10:26:36.114Z,35.20
2022-09-03T10:29:09.048Z,35.16
2022-09-03T10:32:11.762Z,35.51
2022-09-03T10:35:10.564Z,35.00
2022-09-03T10:38:30.333Z,35.81
2022-09-03T10:41:30.197Z,35.87
2022-09-03T10:44:22.939Z,35.69
2022-09-03T10:47:15.617Z,35.46
2022-09-03T10:50:08.887Z,35.54
2022-09-03T10:53:07.283Z,34.88
2022-09-03T10:56:10.831Z,35.53
2022-09-03T10:59:14.727Z,35.43
2022-09-03T11:02:07.474Z,35.40
2022-09-03T11:04:55.412Z,35.00
2022-09-03T11:07:35.256Z,35.55
2022-09-03T11:10:30.994Z,35.80
2022-09-03T11:13:10.688Z,35.84
2022-09-03T11:16:11.113Z,36.11
2022-09-03T11:18:55.676Z,34.99
2022-09-03T11:21:29.655Z,35.48
2022-09-03T11:24:10.402Z,34.84
2022-09-03T11:26:50.216Z,34.88
2022-09-03T11:30:04.104Z,35.03
2022-09-03T11:33:03.497Z,34.46
2022-09-03T11:35:42.557Z,36.16
2022-09-03T11:38:24.125Z,34.43
2022-09-03T11:41:04.476Z,34.64
2022-09-03T11:43:38.047Z,34.52
2022-09-03T11:46:27.824Z,34.88
2022-09-03T11:49:13.808Z,35.68
2022-09-03T11:51:57.511Z,35.87
2022-09-03T11:54:32.031Z,35.64
2022-09-03T11:57:20.310Z,35.37
2022-09-03T11:59:53.344Z,34.53
2022-09-03T12:02:55.456Z,33.40
2022-09-03T12:05:54.317Z,32.18
2022-09-03T12:09:08.165Z,31.54
2022-09-03T12:12:11.669Z,31.68
2022-09-03T12:14:59.693Z,31.10
2022-09-03T12:17:56.132Z,31.45
2022-09-03T12:20:31.935Z,30.71
2022-09-03T12:23:06.193Z,30.87
2022-09-03T12:25:50.700Z,31.40
2022-09-03T12:28:25.294Z,31.07
2022-09-03T12:31:03.061Z,32.16
2022-09-03T12:33:37.410Z,33.06
2022-09-03T12:36:11.887Z,32.41
2022-09-03T12:39:10.594Z,33.06
2022-09-03T12:41:32.390Z,32.65
2022-09-03T12:44:05.739Z,32.91
2022-09-03T12:46:38.980Z,33.05
2022-09-03T12:49:31.397Z,33.17
2022-09-03T12:51:56.721Z,33.68
2022-09-03T12:54:27.427Z,34.43
2022-09-03T12:57:02.215Z,34.27
2022-09-03T12:59:37.052Z,34.08
2022-09-03T13:02:22.637Z,33.75
2022-09-03T13:04:56.171Z,34.48
2022-09-03T13:07:37.650Z,33.62
2022-09-03T13:10:17.151Z,34.22
2022-09-03T13:12:53.576Z,34.42
2022-09-03T13:15:26.612Z,34.31
2022-09-03T13:18:10.098Z,34.22
2022-09-03T13:20:57.093Z,33.60
2022-09-03T13:24:01.109Z,33.79
2022-09-03T13:27:06.563Z,33.76
2022-09-03T13:30:07.295Z,33.74
2022-09-03T13:33:03.226Z,34.41
2022-09-03T13:35:55.819Z,33.81
2022-09-03T13:38:57.032Z,34.57
2022-09-03T13:41:53.696Z,34.47
2022-09-03T13:44:53.078Z,34.00
2022-09-03T13:47:43.693Z,33.99
2022-09-03T13:50:23.535Z,33.95
2022-09-03T13:53:10.630Z,34.43
2022-09-03T13:55:50.445Z,34.83
2022-09-03T13:58:34.355Z,34.84
2022-09-03T14:01:30.983Z,34.46
2022-09-03T14:04:05.912Z,34.20
2022-09-03T14:06:45.290Z,34.46
2022-09-03T14:10:14.137Z,34.44
2022-09-03T14:13:11.598Z,35.23
2022-09-03T14:15:56.021Z,35.33
2022-09-03T14:18:53.923Z,35.76
2022-09-03T14:22:01.287Z,35.82
2022-09-03T14:24:58.171Z,35.99
2022-09-03T14:27:33.228Z,36.23
2022-09-03T14:30:19.715Z,36.57
2022-09-03T14:33:10.614Z,37.07
2022-09-03T14:36:06.649Z,36.05
2022-09-03T14:38:50.381Z,36.30
2022-09-03T14:41:32.585Z,36.58
2022-09-03T14:44:44.745Z,36.31
2022-09-03T14:47:33.963Z,36.59
2022-09-03T14:50:27.959Z,36.49
2022-09-03T14:53:21.405Z,36.76
2022-09-03T14:56:20.814Z,37.30
2022-09-03T14:59:40.905Z,37.56
2022-09-03T15:02:39.105Z,37.51
2022-09-03T15:05:34.607Z,37.36
2022-09-03T15:08:43.562Z,37.67
2022-09-03T15:11:32.021Z,38.26
2022-09-03T15:14:30.461Z,38.55
2022-09-03T15:17:20.344Z,39.09
2022-09-03T15:20:12.994Z,38.94
2022-09-03T15:23:11.890Z,39.36
2022-09-03T15:26:12.044Z,39.67
2022-09-03T15:29:11.633Z,39.63
2022-09-03T15:32:27.002Z,39.63
2022-09-03T15:35:15.786Z,39.95
2022-09-03T15:37:53.311Z,40.18
2022-09-03T15:40:45.908Z,40.34
2022-09-03T15:43:32.642Z,40.10
2022-09-03T15:46:11.323Z,39.84
2022-09-03T15:48:55.531Z,40.07
2022-09-03T15:51:38.229Z,39.63
2022-09-03T15:54:40.832Z,39.81
2022-09-03T15:57:27.360Z,40.13
2022-09-03T16:00:16.657Z,40.34
2022-09-03T16:02:59.174Z,40.43
2022-09-03T16:05:47.535Z,40.33
2022-09-03T16:08:25.814Z,40.55
2022-09-03T16:11:39.805Z,40.81
2022-09-03T16:14:27.131Z,41.35
2022-09-03T16:17:16.573Z,41.58
2022-09-03T16:20:09.009Z,41.69
2022-09-03T16:23:07.272Z,41.68
2022-09-03T16:26:01.957Z,42.10
2022-09-03T16:28:58.231Z,42.50
2022-09-03T16:32:11.758Z,42.70
2022-09-03T16:35:01.662Z,42.76
2022-09-03T16:38:11.904Z,43.05
2022-09-03T16:40:58.122Z,43.43
2022-09-03T16:43:42.900Z,43.33
2022-09-03T16:46:27.027Z,43.51
2022-09-03T16:49:18.574Z,43.94
2022-09-03T16:52:37.806Z,44.13
2022-09-03T16:55:20.430Z,44.54
2022-09-03T16:58:20.348Z,44.69
2022-09-03T17:01:20.953Z,44.21
2022-09-03T17:04:05.138Z,44.82
2022-09-03T17:07:14.408Z,45.32
2022-09-03T17:09:56.240Z,45.49
2022-09-03T17:12:52.975Z,45.88
2022-09-03T17:15:52.989Z,45.87
2022-09-03T17:18:51.026Z,46.09
2022-09-03T17:21:42.110Z,46.20
2022-09-03T17:24:36.302Z,46.33
2022-09-03T17:27:29.563Z,46.53
2022-09-03T17:30:12.670Z,46.43
2022-09-03T17:33:36.158Z,46.42
2022-09-03T17:36:21.833Z,46.46
2022-09-03T17:39:31.585Z,46.30
2022-09-03T17:42:07.253Z,46.29
2022-09-03T17:45:05.218Z,46.33
2022-09-03T17:47:49.471Z,46.37
2022-09-03T17:50:26.514Z,46.79
2022-09-03T17:53:04.659Z,47.26
2022-09-03T17:55:44.719Z,47.41
2022-09-03T17:58:22.832Z,47.62
2022-09-03T18:01:14.565Z,47.91
2022-09-03T18:04:22.713Z,48.12
2022-09-03T18:07:54.150Z,48.25
2022-09-03T18:10:54.268Z,48.26
2022-09-03T18:13:53.578Z,48.11
2022-09-03T18:16:32.896Z,48.23
2022-09-03T18:19:45.927Z,48.18
2022-09-03T18:22:38.178Z,48.32
2022-09-03T18:25:28.861Z,47.87
2022-09-03T18:28:23.988Z,47.55
2022-09-03T18:31:16.413Z,47.54
2022-09-03T18:34:07.318Z,47.76
2022-09-03T18:36:58.829Z,47.95
2022-09-03T18:39:49.897Z,47.96
2022-09-03T18:43:18.024Z,48.15
2022-09-03T18:49:51.758Z,48.54
2022-09-03T18:53:03.549Z,48.78
2022-09-03T18:56:24.360Z,49.38
2022-09-03T18:59:31.350Z,49.79
2022-09-03T19:02:44.580Z,49.81
2022-09-03T19:06:02.427Z,50.41
2022-09-03T19:09:13.097Z,50.77
2022-09-03T19:12:29.296Z,51.32
2022-09-03T19:15:39.800Z,51.51
2022-09-03T19:19:13.871Z,51.92
2022-09-03T19:22:13.699Z,52.25
2022-09-03T19:25:05.942Z,52.58
2022-09-03T19:28:21.346Z,52.74
2022-09-03T19:31:26.843Z,52.98
2022-09-03T19:34:52.287Z,53.44
2022-09-03T19:38:18.219Z,53.58
2022-09-03T19:41:31.855Z,53.98
2022-09-03T19:44:46.822Z,54.63
2022-09-03T19:47:54.929Z,55.11
2022-09-03T19:50:48.614Z,55.30
2022-09-03T19:53:39.209Z,55.57
2022-09-03T19:56:47.017Z,55.76
2022-09-03T19:59:43.148Z,55.85
2022-09-03T20:02:34.302Z,55.87
2022-09-03T20:05:27.924Z,55.92
2022-09-03T20:08:20.572Z,55.63
2022-09-03T20:10:57.759Z,55.64
2022-09-03T20:13:33.715Z,55.71
2022-09-03T20:16:22.074Z,55.83
2022-09-03T20:19:18.294Z,55.91
2022-09-03T20:21:55.581Z,56.01
2022-09-03T20:24:52.444Z,56.10
2022-09-03T20:28:00.034Z,56.33
2022-09-03T20:30:44.358Z,56.37
2022-09-03T20:33:37.362Z,56.40
2022-09-03T20:36:19.539Z,56.52
2022-09-03T20:39:10.646Z,56.43
2022-09-03T20:42:25.731Z,56.40
2022-09-03T20:45:19.847Z,55.18
2022-09-03T20:48:17.031Z,54.66
2022-09-03T20:51:12.647Z,55.09
2022-09-03T20:54:08.982Z,55.25
2022-09-03T20:57:06.980Z,55.35
2022-09-03T21:00:14.527Z,55.41
2022-09-03T21:03:18.041Z,55.81
2022-09-03T21:06:24.467Z,56.06
2022-09-03T21:09:35.546Z,56.13
2022-09-03T21:12:22.146Z,56.26
2022-09-03T21:14:58.822Z,56.45
2022-09-03T21:17:39.696Z,56.75
2022-09-03T21:20:47.398Z,56.95
2022-09-03T21:23:36.846Z,57.28
2022-09-03T21:26:22.825Z,57.33
2022-09-03T21:29:26.673Z,57.39
2022-09-03T21:32:21.012Z,57.43
2022-09-03T21:35:02.967Z,57.63
2022-09-03T21:37:40.449Z,57.82
2022-09-03T21:40:14.771Z,57.88
2022-09-03T21:43:00.776Z,58.06
2022-09-03T21:45:48.641Z,58.24
2022-09-03T21:48:39.307Z,58.38
2022-09-03T21:51:21.784Z,58.36
2022-09-03T21:54:13.834Z,58.54
2022-09-03T21:57:22.060Z,58.82
2022-09-03T22:00:22.430Z,59.02
2022-09-03T22:02:57.234Z,59.36
2022-09-03T22:05:53.361Z,59.70
2022-09-03T22:08:43.945Z,59.81
2022-09-03T22:11:24.731Z,60.05
2022-09-03T22:14:14.908Z,60.42
2022-09-03T22:16:52.459Z,60.83
2022-09-03T22:19:26.533Z,61.04
2022-09-03T22:22:02.579Z,61.26
2022-09-03T22:25:06.391Z,61.69
2022-09-03T22:27:49.725Z,61.89
2022-09-03T22:30:25.459Z,62.26
2022-09-03T22:33:12.104Z,62.60
2022-09-03T22:36:06.145Z,62.77
2022-09-03T22:39:00.343Z,62.97
2022-09-03T22:42:15.333Z,63.18
2022-09-03T22:45:23.528Z,63.33
2022-09-03T22:48:01.134Z,63.43
2022-09-03T22:50:41.280Z,63.48
2022-09-03T22:53:37.103Z,63.66
2022-09-03T22:56:13.457Z,63.78
2022-09-03T22:58:56.922Z,63.72
2022-09-03T23:01:36.208Z,63.88
2022-09-03T23:04:23.997Z,63.81
2022-09-03T23:07:03.925Z,63.79
2022-09-03T23:09:39.628Z,63.85
2022-09-03T23:12:20.559Z,63.68
2022-09-03T23:14:56.754Z,63.47
2022-09-03T23:20:23.774Z,63.56
2022-09-03T23:23:25.548Z,63.67
2022-09-03T23:26:08.490Z,63.88
2022-09-03T23:28:49.469Z,64.03
2022-09-03T23:31:25.457Z,64.18
2022-09-03T23:33:59.415Z,64.40
2022-09-03T23:40:02.390Z,64.95
2022-09-03T23:42:59.773Z,65.22
2022-09-03T23:46:07.397Z,65.42
2022-09-03T23:48:51.822Z,65.71
2022-09-03T23:52:04.150Z,65.97
2022-09-03T23:55:10.619Z,66.22
2022-09-03T23:57:46.371Z,66.44
